Orbital elements of ASIASTAR
| Launched | 20 March 2000 |
| Flight ended | – |
| Launch site | Europe's Spaceport, Kourou, French Guiana |
| Owner | United States |
| NORAD ID | 26107 |
| Date fetched |
Epoch osculation |
Inc. [°] |
Ecc. | RA asc node [hr] |
Arg Peri. [°] |
Mean anom [°] |
Mean motion [rev/day] |
Abs. mag |
| Date fetched |
Epoch osculation |
Inc. [°] |
Ecc. | RA asc node [hr] |
Arg Peri. [°] |
Mean anom [°] |
Mean motion [rev/day] |
Abs. mag |
| 2026 May 09 17:57 | 2026 May 08 18:40:55 | 9.0389 | 0.00053 | 3.9046 | 351.2457 | 202.0188 | 1.00279 | – |
| 2026 May 08 17:57 | 2026 May 07 17:01:00 | 9.0369 | 0.00053 | 3.9054 | 355.6043 | 202.0188 | 1.00279 | – |
| 2026 May 07 17:58 | 2026 May 06 20:44:51 | 9.0351 | 0.00053 | 3.9060 | 354.5287 | 202.0188 | 1.00279 | – |
| 2026 May 06 17:57 | 2026 May 06 11:36:54 | 9.0343 | 0.00053 | 3.9063 | 354.0083 | 202.0188 | 1.00279 | – |
| 2026 May 05 17:57 | 2026 May 05 11:39:46 | 9.0322 | 0.00053 | 3.9070 | 352.8320 | 202.0188 | 1.00279 | – |
| 2026 May 04 17:57 | 2026 May 04 06:52:48 | 9.0297 | 0.00053 | 3.9079 | 351.1791 | 202.0188 | 1.00279 | – |
| 2026 May 03 17:57 | 2026 May 03 06:55:22 | 9.0276 | 0.00053 | 3.9086 | 349.8404 | 202.0188 | 1.00279 | – |
| 2026 May 02 17:57 | 2026 May 01 18:59:10 | 9.0245 | 0.00053 | 3.9096 | 347.4518 | 202.0188 | 1.00279 | – |
| 2026 May 01 17:56 | 2026 May 01 07:00:28 | 9.0234 | 0.00053 | 3.9100 | 346.7418 | 202.0188 | 1.00279 | – |
| 2026 Apr 30 17:56 | 2026 Apr 29 20:36:38 | 9.0203 | 0.00052 | 3.9110 | 344.4795 | 202.0188 | 1.00279 | – |
| 2026 Apr 29 17:57 | 2026 Apr 29 07:05:34 | 9.0191 | 0.00052 | 3.9114 | 343.7064 | 202.0188 | 1.00279 | – |
| 2026 Apr 28 17:56 | 2026 Apr 28 07:08:07 | 9.0167 | 0.00052 | 3.9121 | 342.4945 | 202.0188 | 1.00279 | – |
| 2026 Apr 27 17:58 | 2026 Apr 26 19:11:55 | 9.0129 | 0.00050 | 3.9131 | 18.4141 | 202.0188 | 1.00279 | – |
| 2026 Apr 26 17:58 | 2026 Apr 25 19:14:31 | 9.0109 | 0.00050 | 3.9138 | 336.3308 | 202.0188 | 1.00279 | – |
| 2026 Apr 25 17:58 | 2026 Apr 24 05:30:51 | 9.0077 | 0.00050 | 3.9149 | 341.2048 | 202.0188 | 1.00279 | – |
| 2026 Apr 24 17:59 | 2026 Apr 24 05:30:51 | 9.0077 | 0.00050 | 3.9149 | 341.2048 | 202.0188 | 1.00279 | – |
| 2026 Apr 23 17:57 | 2026 Apr 23 06:39:38 | 9.0053 | 0.00049 | 3.9155 | 339.7721 | 202.0188 | 1.00279 | – |
| 2026 Apr 22 17:57 | 2026 Apr 21 19:07:35 | 9.0015 | 0.00049 | 3.9165 | 338.0209 | 202.0188 | 1.00279 | – |
| 2026 Apr 21 17:57 | 2026 Apr 21 11:42:02 | 9.0007 | 0.00048 | 3.9167 | 337.5566 | 202.0188 | 1.00279 | – |
| 2026 Apr 20 17:57 | 2026 Apr 20 11:56:10 | 8.9981 | 0.00048 | 3.9173 | 336.5234 | 202.0188 | 1.00279 | – |
| 2026 Apr 19 17:58 | 2026 Apr 19 11:51:56 | 8.9954 | 0.00048 | 3.9180 | 335.5872 | 202.0188 | 1.00279 | – |
| 2026 Apr 18 17:56 | 2026 Apr 17 19:35:05 | 8.9910 | 0.00048 | 3.9191 | 334.1058 | 202.0188 | 1.00279 | – |
| 2026 Apr 16 17:57 | 2026 Apr 15 19:40:12 | 8.9858 | 0.00048 | 3.9205 | 332.5717 | 202.0188 | 1.00279 | – |
| 2026 Apr 14 17:57 | 2026 Apr 14 07:44:01 | 8.9823 | 0.00049 | 3.9216 | 331.5521 | 202.0188 | 1.00279 | – |
| 2026 Apr 13 17:57 | 2026 Apr 12 19:47:48 | 8.9788 | 0.00049 | 3.9226 | 329.9762 | 202.0188 | 1.00279 | – |
| 2026 Apr 12 17:57 | 2026 Apr 12 07:49:11 | 8.9777 | 0.00049 | 3.9230 | 329.6859 | 202.0188 | 1.00279 | – |